sensor_id;sensor_type;location;lat;lon;timestamp;pressure;altitude;pressure_sealevel;temperature;humidity
55656;BME280;41530;52.382;5.270;2023-05-09T00:02:22;101933.63;;;21.56;52.23
55656;BME280;41530;52.382;5.270;2023-05-09T00:04:51;101900.47;;;21.39;52.28
55656;BME280;41530;52.382;5.270;2023-05-09T00:07:19;101934.63;;;21.55;52.19
55656;BME280;41530;52.382;5.270;2023-05-09T00:09:50;101925.75;;;21.54;51.96
55656;BME280;41530;52.382;5.270;2023-05-09T00:12:22;101965.59;;;21.75;52.27
55656;BME280;41530;52.382;5.270;2023-05-09T00:14:50;101946.09;;;21.65;52.15
55656;BME280;41530;52.382;5.270;2023-05-09T00:17:20;101915.41;;;21.42;52.20
55656;BME280;41530;52.382;5.270;2023-05-09T00:19:49;101967.44;;;21.75;52.09
55656;BME280;41530;52.382;5.270;2023-05-09T00:22:18;101943.72;;;21.62;52.38
55656;BME280;41530;52.382;5.270;2023-05-09T00:24:49;101937.66;;;21.60;52.29
55656;BME280;41530;52.382;5.270;2023-05-09T00:27:16;101895.56;;;21.34;52.07
55656;BME280;41530;52.382;5.270;2023-05-09T00:29:46;101944.56;;;21.62;52.15
55656;BME280;41530;52.382;5.270;2023-05-09T00:32:15;101918.16;;;21.50;52.22
55656;BME280;41530;52.382;5.270;2023-05-09T00:34:46;101919.13;;;21.49;51.99
55656;BME280;41530;52.382;5.270;2023-05-09T00:37:15;101891.91;;;21.36;52.05
55656;BME280;41530;52.382;5.270;2023-05-09T00:39:49;101932.31;;;21.60;52.45
55656;BME280;41530;52.382;5.270;2023-05-09T00:42:18;101923.56;;;21.58;52.21
55656;BME280;41530;52.382;5.270;2023-05-09T00:44:51;101894.50;;;21.45;52.21
55656;BME280;41530;52.382;5.270;2023-05-09T00:47:19;101866.91;;;21.27;52.20
55656;BME280;41530;52.382;5.270;2023-05-09T00:49:56;101878.66;;;21.34;52.20
55656;BME280;41530;52.382;5.270;2023-05-09T00:52:32;101880.19;;;21.37;51.94
55656;BME280;41530;52.382;5.270;2023-05-09T00:55:04;101898.00;;;21.46;51.91
55656;BME280;41530;52.382;5.270;2023-05-09T00:57:33;101896.50;;;21.43;52.18
55656;BME280;41530;52.382;5.270;2023-05-09T01:00:08;101908.69;;;21.55;52.38
55656;BME280;41530;52.382;5.270;2023-05-09T01:03:00;101867.25;;;21.32;52.32
55656;BME280;41530;52.382;5.270;2023-05-09T01:05:51;101921.84;;;21.66;52.06
55656;BME280;41530;52.382;5.270;2023-05-09T01:09:27;101916.63;;;21.65;52.15
55656;BME280;41530;52.382;5.270;2023-05-09T01:17:34;101873.69;;;21.39;52.37
55656;BME280;41530;52.382;5.270;2023-05-09T01:20:11;101907.22;;;21.61;52.08
55656;BME280;41530;52.382;5.270;2023-05-09T01:29:41;101898.47;;;21.59;52.23
55656;BME280;41530;52.382;5.270;2023-05-09T01:35:12;101892.28;;;21.58;52.26
55656;BME280;41530;52.382;5.270;2023-05-09T01:37:42;101898.63;;;21.57;52.06
55656;BME280;41530;52.382;5.270;2023-05-09T01:40:13;101886.41;;;21.55;52.12
55656;BME280;41530;52.382;5.270;2023-05-09T01:42:43;101885.41;;;21.56;52.08
55656;BME280;41530;52.382;5.270;2023-05-09T01:45:12;101888.75;;;21.58;52.14
55656;BME280;41530;52.382;5.270;2023-05-09T01:47:40;101882.75;;;21.56;52.22
55656;BME280;41530;52.382;5.270;2023-05-09T01:50:10;101879.88;;;21.57;52.34
55656;BME280;41530;52.382;5.270;2023-05-09T01:52:39;101873.19;;;21.53;52.12
55656;BME280;41530;52.382;5.270;2023-05-09T01:55:07;101876.41;;;21.57;52.41
55656;BME280;41530;52.382;5.270;2023-05-09T01:57:35;101871.19;;;21.55;52.09
55656;BME280;41530;52.382;5.270;2023-05-09T02:00:04;101862.47;;;21.53;52.17
55656;BME280;41530;52.382;5.270;2023-05-09T02:02:33;101866.97;;;21.53;52.03
55656;BME280;41530;52.382;5.270;2023-05-09T02:05:01;101864.16;;;21.54;52.22
55656;BME280;41530;52.382;5.270;2023-05-09T02:07:28;101868.66;;;21.54;51.93
55656;BME280;41530;52.382;5.270;2023-05-09T02:09:57;101858.78;;;21.54;51.87
55656;BME280;41530;52.382;5.270;2023-05-09T02:12:23;101864.16;;;21.54;52.19
55656;BME280;41530;52.382;5.270;2023-05-09T02:14:50;101865.13;;;21.53;52.13
55656;BME280;41530;52.382;5.270;2023-05-09T02:17:17;101853.75;;;21.51;51.96
55656;BME280;41530;52.382;5.270;2023-05-09T02:19:44;101850.06;;;21.52;52.02
55656;BME280;41530;52.382;5.270;2023-05-09T02:22:12;101856.41;;;21.51;51.95
55656;BME280;41530;52.382;5.270;2023-05-09T02:24:39;101846.53;;;21.52;52.03
55656;BME280;41530;52.382;5.270;2023-05-09T02:27:07;101853.75;;;21.51;52.25
55656;BME280;41530;52.382;5.270;2023-05-09T02:29:47;101840.50;;;21.50;52.12
55656;BME280;41530;52.382;5.270;2023-05-09T02:32:21;101847.53;;;21.51;52.09
55656;BME280;41530;52.382;5.270;2023-05-09T02:34:51;101850.38;;;21.49;51.99
55656;BME280;41530;52.382;5.270;2023-05-09T02:37:19;101839.81;;;21.48;52.34
55656;BME280;41530;52.382;5.270;2023-05-09T02:39:46;101838.81;;;21.49;52.03
55656;BME280;41530;52.382;5.270;2023-05-09T02:42:21;101835.28;;;21.48;51.94
55656;BME280;41530;52.382;5.270;2023-05-09T02:44:51;101834.59;;;21.46;52.16
55656;BME280;41530;52.382;5.270;2023-05-09T02:47:18;101838.13;;;21.47;52.14
55656;BME280;41530;52.382;5.270;2023-05-09T02:49:45;101829.59;;;21.43;52.04
55656;BME280;41530;52.382;5.270;2023-05-09T02:52:11;101839.13;;;21.46;52.28
55656;BME280;41530;52.382;5.270;2023-05-09T02:54:38;101832.06;;;21.45;52.10
55656;BME280;41530;52.382;5.270;2023-05-09T02:57:05;101834.75;;;21.45;51.97
55656;BME280;41530;52.382;5.270;2023-05-09T02:59:32;101826.06;;;21.43;52.16
55656;BME280;41530;52.382;5.270;2023-05-09T03:01:59;101826.72;;;21.45;51.92
55656;BME280;41530;52.382;5.270;2023-05-09T03:04:25;101818.88;;;21.43;51.83
55656;BME280;41530;52.382;5.270;2023-05-09T03:06:52;101820.53;;;21.44;51.96
55656;BME280;41530;52.382;5.270;2023-05-09T03:09:19;101813.53;;;21.43;51.80
55656;BME280;41530;52.382;5.270;2023-05-09T03:11:45;101806.47;;;21.42;52.21
55656;BME280;41530;52.382;5.270;2023-05-09T03:14:12;101796.75;;;21.41;51.75
55656;BME280;41530;52.382;5.270;2023-05-09T03:16:40;101802.13;;;21.41;52.02
55656;BME280;41530;52.382;5.270;2023-05-09T03:19:07;101788.72;;;21.41;52.03
55656;BME280;41530;52.382;5.270;2023-05-09T03:21:33;101791.56;;;21.40;52.10
55656;BME280;41530;52.382;5.270;2023-05-09T03:24:00;101788.88;;;21.40;52.14
55656;BME280;41530;52.382;5.270;2023-05-09T03:26:27;101783.69;;;21.38;51.77
55656;BME280;41530;52.382;5.270;2023-05-09T03:28:53;101784.53;;;21.39;52.07
55656;BME280;41530;52.382;5.270;2023-05-09T03:31:20;101774.13;;;21.36;51.71
55656;BME280;41530;52.382;5.270;2023-05-09T03:33:46;101773.97;;;21.37;51.90
55656;BME280;41530;52.382;5.270;2023-05-09T03:36:13;101770.59;;;21.35;51.85
55656;BME280;41530;52.382;5.270;2023-05-09T03:38:40;101774.13;;;21.36;52.08
55656;BME280;41530;52.382;5.270;2023-05-09T03:41:06;101767.91;;;21.35;51.82
55656;BME280;41530;52.382;5.270;2023-05-09T03:43:33;101764.25;;;21.36;51.84
55656;BME280;41530;52.382;5.270;2023-05-09T03:46:00;101760.88;;;21.34;52.12
55656;BME280;41530;52.382;5.270;2023-05-09T03:48:26;101749.34;;;21.33;52.15
55656;BME280;41530;52.382;5.270;2023-05-09T03:50:53;101747.66;;;21.32;52.11
55656;BME280;41530;52.382;5.270;2023-05-09T03:53:19;101740.47;;;21.33;52.00
55656;BME280;41530;52.382;5.270;2023-05-09T03:55:46;101736.94;;;21.32;51.90
55656;BME280;41530;52.382;5.270;2023-05-09T03:58:13;101734.28;;;21.32;51.84
55656;BME280;41530;52.382;5.270;2023-05-09T04:00:40;101734.28;;;21.32;51.99
55656;BME280;41530;52.382;5.270;2023-05-09T04:03:07;101735.44;;;21.30;51.98
55656;BME280;41530;52.382;5.270;2023-05-09T04:05:34;101739.63;;;21.32;51.83
55656;BME280;41530;52.382;5.270;2023-05-09T04:08:01;101734.59;;;21.29;52.04
55656;BME280;41530;52.382;5.270;2023-05-09T04:10:29;101737.94;;;21.31;52.08
55656;BME280;41530;52.382;5.270;2023-05-09T04:12:56;101736.28;;;21.30;52.07
55656;BME280;41530;52.382;5.270;2023-05-09T04:15:22;101733.91;;;21.27;51.89
55656;BME280;41530;52.382;5.270;2023-05-09T04:17:49;101739.13;;;21.29;52.03
55656;BME280;41530;52.382;5.270;2023-05-09T04:20:16;101724.88;;;21.28;52.25
55656;BME280;41530;52.382;5.270;2023-05-09T04:22:42;101721.38;;;21.28;52.06
55656;BME280;41530;52.382;5.270;2023-05-09T04:25:12;101722.38;;;21.27;51.93
55656;BME280;41530;52.382;5.270;2023-05-09T04:27:40;101724.06;;;21.28;51.87
55656;BME280;41530;52.382;5.270;2023-05-09T04:30:07;101722.38;;;21.27;51.89
55656;BME280;41530;52.382;5.270;2023-05-09T04:32:34;101717.31;;;21.24;52.00
55656;BME280;41530;52.382;5.270;2023-05-09T04:35:02;101722.53;;;21.25;51.88
55656;BME280;41530;52.382;5.270;2023-05-09T04:37:29;101722.66;;;21.24;51.86
55656;BME280;41530;52.382;5.270;2023-05-09T04:39:57;101722.53;;;21.25;51.66
55656;BME280;41530;52.382;5.270;2023-05-09T04:42:23;101721.69;;;21.25;51.89
55656;BME280;41530;52.382;5.270;2023-05-09T04:44:50;101720.84;;;21.24;51.89
55656;BME280;41530;52.382;5.270;2023-05-09T04:47:17;101719.16;;;21.23;51.78
55656;BME280;41530;52.382;5.270;2023-05-09T04:49:43;101711.97;;;21.24;51.62
55656;BME280;41530;52.382;5.270;2023-05-09T04:52:10;101708.75;;;21.20;51.63
55656;BME280;41530;52.382;5.270;2023-05-09T04:54:36;101713.94;;;21.22;51.79
55656;BME280;41530;52.382;5.270;2023-05-09T04:57:03;101700.72;;;21.20;51.58
55656;BME280;41530;52.382;5.270;2023-05-09T04:59:43;101706.91;;;21.21;51.76
55656;BME280;41530;52.382;5.270;2023-05-09T05:02:10;101690.03;;;21.20;51.89
55656;BME280;41530;52.382;5.270;2023-05-09T05:04:38;101682.00;;;21.20;51.84
55656;BME280;41530;52.382;5.270;2023-05-09T05:07:05;101685.50;;;21.21;51.66
55656;BME280;41530;52.382;5.270;2023-05-09T05:09:31;101687.34;;;21.20;51.50
55656;BME280;41530;52.382;5.270;2023-05-09T05:11:58;101688.34;;;21.19;51.69
55656;BME280;41530;52.382;5.270;2023-05-09T05:14:27;101687.50;;;21.19;51.30
55656;BME280;41530;52.382;5.270;2023-05-09T05:16:54;101691.00;;;21.19;51.51
55656;BME280;41530;52.382;5.270;2023-05-09T05:19:21;101679.47;;;21.19;51.81
55656;BME280;41530;52.382;5.270;2023-05-09T05:21:47;101681.16;;;21.20;51.31
55656;BME280;41530;52.382;5.270;2023-05-09T05:24:14;101686.34;;;21.21;51.55
55656;BME280;41530;52.382;5.270;2023-05-09T05:26:40;101680.31;;;21.19;51.68
55656;BME280;41530;52.382;5.270;2023-05-09T05:29:07;101663.25;;;21.20;51.71
55656;BME280;41530;52.382;5.270;2023-05-09T05:31:34;101667.75;;;21.20;51.48
55656;BME280;41530;52.382;5.270;2023-05-09T05:34:01;101663.41;;;21.19;51.75
55656;BME280;41530;52.382;5.270;2023-05-09T05:36:28;101658.06;;;21.19;51.57
55656;BME280;41530;52.382;5.270;2023-05-09T05:38:55;101650.16;;;21.17;51.62
55656;BME280;41530;52.382;5.270;2023-05-09T05:41:21;101640.63;;;21.15;51.67
55656;BME280;41530;52.382;5.270;2023-05-09T05:43:48;101649.34;;;21.17;51.52
55656;BME280;41530;52.382;5.270;2023-05-09T05:46:18;101643.28;;;21.15;51.35
55656;BME280;41530;52.382;5.270;2023-05-09T05:48:44;101647.81;;;21.14;51.80
55656;BME280;41530;52.382;5.270;2023-05-09T05:51:11;101641.91;;;21.11;51.79
55656;BME280;41530;52.382;5.270;2023-05-09T05:53:37;101646.81;;;21.15;51.72
55656;BME280;41530;52.382;5.270;2023-05-09T05:56:04;101630.22;;;21.12;51.52
55656;BME280;41530;52.382;5.270;2023-05-09T05:58:31;101634.28;;;21.16;51.78
55656;BME280;41530;52.382;5.270;2023-05-09T06:00:57;101632.06;;;21.11;51.71
55656;BME280;41530;52.382;5.270;2023-05-09T06:03:24;101637.94;;;21.15;51.55
55656;BME280;41530;52.382;5.270;2023-05-09T06:05:51;101630.06;;;21.13;51.69
55656;BME280;41530;52.382;5.270;2023-05-09T06:08:18;101633.59;;;21.14;51.56
55656;BME280;41530;52.382;5.270;2023-05-09T06:10:44;101630.22;;;21.12;51.83
55656;BME280;41530;52.382;5.270;2023-05-09T06:13:11;101621.34;;;21.11;51.69
55656;BME280;41530;52.382;5.270;2023-05-09T06:15:38;101630.91;;;21.14;51.60
55656;BME280;41530;52.382;5.270;2023-05-09T06:18:04;101626.41;;;21.14;51.59
55656;BME280;41530;52.382;5.270;2023-05-09T06:20:31;101632.75;;;21.13;51.98
55656;BME280;41530;52.382;5.270;2023-05-09T06:22:58;101610.81;;;21.10;52.08
55656;BME280;41530;52.382;5.270;2023-05-09T06:25:24;101611.50;;;21.12;52.03
55656;BME280;41530;52.382;5.270;2023-05-09T06:27:51;101607.97;;;21.11;52.10
55656;BME280;41530;52.382;5.270;2023-05-09T06:30:17;101611.34;;;21.13;51.66
55656;BME280;41530;52.382;5.270;2023-05-09T06:32:53;101609.66;;;21.12;51.85
55656;BME280;41530;52.382;5.270;2023-05-09T06:35:20;101603.31;;;21.13;51.92
55656;BME280;41530;52.382;5.270;2023-05-09T06:37:47;101605.84;;;21.15;52.66
55656;BME280;41530;52.382;5.270;2023-05-09T06:40:15;101593.31;;;21.15;52.30
55656;BME280;41530;52.382;5.270;2023-05-09T06:42:42;101593.16;;;21.17;52.57
55656;BME280;41530;52.382;5.270;2023-05-09T06:45:09;101592.97;;;21.18;52.60
55656;BME280;41530;52.382;5.270;2023-05-09T06:47:36;101594.69;;;21.19;52.67
55656;BME280;41530;52.382;5.270;2023-05-09T06:50:03;101585.66;;;21.20;52.83
55656;BME280;41530;52.382;5.270;2023-05-09T06:52:29;101581.28;;;21.19;52.70
55656;BME280;41530;52.382;5.270;2023-05-09T06:54:56;101587.19;;;21.23;52.88
55656;BME280;41530;52.382;5.270;2023-05-09T06:57:23;101573.13;;;21.21;52.70
55656;BME280;41530;52.382;5.270;2023-05-09T06:59:49;101576.47;;;21.23;52.78
55656;BME280;41530;52.382;5.270;2023-05-09T07:02:16;101572.13;;;21.22;52.58
55656;BME280;41530;52.382;5.270;2023-05-09T07:04:43;101572.97;;;21.22;53.17
55656;BME280;41530;52.382;5.270;2023-05-09T07:07:09;101571.97;;;21.23;52.47
55656;BME280;41530;52.382;5.270;2023-05-09T07:09:36;101570.97;;;21.24;52.76
55656;BME280;41530;52.382;5.270;2023-05-09T07:12:03;101563.78;;;21.25;52.76
55656;BME280;41530;52.382;5.270;2023-05-09T07:14:29;101560.09;;;21.26;52.32
55656;BME280;41530;52.382;5.270;2023-05-09T07:16:56;101559.25;;;21.25;52.51
55656;BME280;41530;52.382;5.270;2023-05-09T07:19:42;101558.44;;;21.25;52.51
55656;BME280;41530;52.382;5.270;2023-05-09T07:22:09;101555.59;;;21.26;52.36
55656;BME280;41530;52.382;5.270;2023-05-09T07:24:36;101555.59;;;21.26;52.39
55656;BME280;41530;52.382;5.270;2023-05-09T07:27:02;101550.25;;;21.26;52.49
55656;BME280;41530;52.382;5.270;2023-05-09T07:29:29;101548.56;;;21.25;52.27
55656;BME280;41530;52.382;5.270;2023-05-09T07:31:56;101547.56;;;21.26;52.66
55656;BME280;41530;52.382;5.270;2023-05-09T07:34:22;101559.78;;;21.29;52.45
55656;BME280;41530;52.382;5.270;2023-05-09T07:36:50;101551.78;;;21.29;52.16
55656;BME280;41530;52.382;5.270;2023-05-09T07:39:17;101553.59;;;21.28;52.23
55656;BME280;41530;52.382;5.270;2023-05-09T07:41:44;101550.78;;;21.30;52.35
55656;BME280;41530;52.382;5.270;2023-05-09T07:44:13;101546.41;;;21.29;52.42
55656;BME280;41530;52.382;5.270;2023-05-09T07:46:40;101546.25;;;21.30;52.23
55656;BME280;41530;52.382;5.270;2023-05-09T07:49:07;101542.75;;;21.30;52.51
55656;BME280;41530;52.382;5.270;2023-05-09T07:51:34;101539.38;;;21.28;52.49
55656;BME280;41530;52.382;5.270;2023-05-09T07:54:01;101540.06;;;21.30;52.39
55656;BME280;41530;52.382;5.270;2023-05-09T07:56:27;101531.19;;;21.29;52.42
55656;BME280;41530;52.382;5.270;2023-05-09T07:58:54;101536.34;;;21.31;52.47
55656;BME280;41530;52.382;5.270;2023-05-09T08:01:21;101527.53;;;21.30;52.36
55656;BME280;41530;52.382;5.270;2023-05-09T08:03:47;101525.84;;;21.29;52.25
55656;BME280;41530;52.382;5.270;2023-05-09T08:06:14;101524.84;;;21.30;52.37
55656;BME280;41530;52.382;5.270;2023-05-09T08:08:41;101512.28;;;21.31;52.18
55656;BME280;41530;52.382;5.270;2023-05-09T08:11:07;101510.44;;;21.31;52.42
55656;BME280;41530;52.382;5.270;2023-05-09T08:13:34;101511.28;;;21.32;52.61
55656;BME280;41530;52.382;5.270;2023-05-09T08:16:00;101503.44;;;21.30;52.20
55656;BME280;41530;52.382;5.270;2023-05-09T08:18:28;101497.25;;;21.30;52.21
55656;BME280;41530;52.382;5.270;2023-05-09T08:20:54;101499.56;;;21.33;52.41
55656;BME280;41530;52.382;5.270;2023-05-09T08:23:21;101496.91;;;21.33;52.10
55656;BME280;41530;52.382;5.270;2023-05-09T08:25:51;101486.19;;;21.33;52.37
55656;BME280;41530;52.382;5.270;2023-05-09T08:28:18;101490.53;;;21.34;52.39
55656;BME280;41530;52.382;5.270;2023-05-09T08:30:46;101486.03;;;21.34;52.45
55656;BME280;41530;52.382;5.270;2023-05-09T08:33:12;101478.16;;;21.33;52.30
55656;BME280;41530;52.382;5.270;2023-05-09T08:35:39;101478.00;;;21.34;52.06
55656;BME280;41530;52.382;5.270;2023-05-09T08:38:06;101482.34;;;21.36;52.41
55656;BME280;41530;52.382;5.270;2023-05-09T08:40:36;101470.81;;;21.35;52.32
55656;BME280;41530;52.382;5.270;2023-05-09T08:43:06;101476.00;;;21.37;52.03
55656;BME280;41530;52.382;5.270;2023-05-09T08:45:49;101466.97;;;21.38;52.28
55656;BME280;41530;52.382;5.270;2023-05-09T08:48:17;101469.81;;;21.36;52.14
55656;BME280;41530;52.382;5.270;2023-05-09T08:50:44;101467.81;;;21.38;52.06
55656;BME280;41530;52.382;5.270;2023-05-09T08:53:11;101457.94;;;21.39;51.99
55656;BME280;41530;52.382;5.270;2023-05-09T08:55:38;101456.28;;;21.38;52.32
55656;BME280;41530;52.382;5.270;2023-05-09T08:58:05;101459.63;;;21.40;51.97
55656;BME280;41530;52.382;5.270;2023-05-09T09:00:32;101459.63;;;21.40;52.06
55656;BME280;41530;52.382;5.270;2023-05-09T09:03:01;101455.13;;;21.40;51.98
55656;BME280;41530;52.382;5.270;2023-05-09T09:05:36;101449.75;;;21.40;52.43
55656;BME280;41530;52.382;5.270;2023-05-09T09:08:08;101454.28;;;21.40;51.97
55656;BME280;41530;52.382;5.270;2023-05-09T09:10:39;101447.94;;;21.41;52.52
55656;BME280;41530;52.382;5.270;2023-05-09T09:13:13;101445.41;;;21.39;52.15
55656;BME280;41530;52.382;5.270;2023-05-09T09:15:42;101447.09;;;21.40;52.26
55656;BME280;41530;52.382;5.270;2023-05-09T09:18:11;101445.25;;;21.41;52.26
55656;BME280;41530;52.382;5.270;2023-05-09T09:20:49;101442.56;;;21.41;52.20
55656;BME280;41530;52.382;5.270;2023-05-09T09:23:18;101438.22;;;21.40;52.19
55656;BME280;41530;52.382;5.270;2023-05-09T09:25:46;101433.72;;;21.40;52.08
55656;BME280;41530;52.382;5.270;2023-05-09T09:28:14;101425.84;;;21.39;52.43
55656;BME280;41530;52.382;5.270;2023-05-09T09:30:44;101427.34;;;21.41;52.18
55656;BME280;41530;52.382;5.270;2023-05-09T09:33:19;101428.19;;;21.42;52.27
55656;BME280;41530;52.382;5.270;2023-05-09T09:35:50;101430.88;;;21.42;52.46
55656;BME280;41530;52.382;5.270;2023-05-09T09:38:19;101425.53;;;21.42;52.45
55656;BME280;41530;52.382;5.270;2023-05-09T09:43:18;101432.88;;;21.40;52.30
55656;BME280;41530;52.382;5.270;2023-05-09T09:45:48;101420.16;;;21.42;52.17
55656;BME280;41530;52.382;5.270;2023-05-09T09:48:16;101422.84;;;21.42;52.11
55656;BME280;41530;52.382;5.270;2023-05-09T09:50:43;101422.84;;;21.42;52.07
55656;BME280;41530;52.382;5.270;2023-05-09T09:53:12;101421.84;;;21.43;52.04
55656;BME280;41530;52.382;5.270;2023-05-09T09:55:48;101418.31;;;21.42;52.33
55656;BME280;41530;52.382;5.270;2023-05-09T09:58:16;101415.66;;;21.42;52.13
55656;BME280;41530;52.382;5.270;2023-05-09T10:00:43;101409.47;;;21.42;51.95
55656;BME280;41530;52.382;5.270;2023-05-09T10:03:15;101403.09;;;21.43;52.27
55656;BME280;41530;52.382;5.270;2023-05-09T10:05:42;101407.47;;;21.44;52.15
55656;BME280;41530;52.382;5.270;2023-05-09T10:08:08;101407.47;;;21.44;52.17
55656;BME280;41530;52.382;5.270;2023-05-09T10:10:36;101405.59;;;21.44;52.27
55656;BME280;41530;52.382;5.270;2023-05-09T10:13:06;101403.75;;;21.45;51.95
55656;BME280;41530;52.382;5.270;2023-05-09T10:15:34;101404.59;;;21.45;51.88
55656;BME280;41530;52.382;5.270;2023-05-09T10:18:22;101398.41;;;21.45;52.23
55656;BME280;41530;52.382;5.270;2023-05-09T10:20:50;101402.91;;;21.44;52.30
55656;BME280;41530;52.382;5.270;2023-05-09T10:23:18;101397.56;;;21.44;52.17
55656;BME280;41530;52.382;5.270;2023-05-09T10:26:15;101396.75;;;21.44;52.35
55656;BME280;41530;52.382;5.270;2023-05-09T10:28:45;101397.56;;;21.44;52.04
55656;BME280;41530;52.382;5.270;2023-05-09T10:31:28;101401.91;;;21.45;52.22
55656;BME280;41530;52.382;5.270;2023-05-09T10:34:00;101388.72;;;21.44;52.10
55656;BME280;41530;52.382;5.270;2023-05-09T10:36:31;101396.56;;;21.45;52.06
55656;BME280;41530;52.382;5.270;2023-05-09T10:38:58;101385.00;;;21.45;52.13
55656;BME280;41530;52.382;5.270;2023-05-09T10:41:25;101381.50;;;21.44;51.89
55656;BME280;41530;52.382;5.270;2023-05-09T10:43:55;101384.00;;;21.46;52.12
55656;BME280;41530;52.382;5.270;2023-05-09T10:46:23;101371.63;;;21.45;52.34
55656;BME280;41530;52.382;5.270;2023-05-09T10:48:50;101368.94;;;21.45;52.06
55656;BME280;41530;52.382;5.270;2023-05-09T10:51:17;101374.16;;;21.46;51.95
55656;BME280;41530;52.382;5.270;2023-05-09T10:53:46;101366.28;;;21.45;52.36
55656;BME280;41530;52.382;5.270;2023-05-09T10:56:30;101362.59;;;21.46;52.10
55656;BME280;41530;52.382;5.270;2023-05-09T10:58:58;101368.94;;;21.45;52.04
55656;BME280;41530;52.382;5.270;2023-05-09T11:01:36;101355.56;;;21.45;51.96
55656;BME280;41530;52.382;5.270;2023-05-09T11:04:12;101363.59;;;21.45;52.08
55656;BME280;41530;52.382;5.270;2023-05-09T11:09:26;101356.41;;;21.45;52.06
55656;BME280;41530;52.382;5.270;2023-05-09T11:12:08;101352.25;;;21.43;52.02
55656;BME280;41530;52.382;5.270;2023-05-09T11:14:46;101345.91;;;21.44;52.29
55656;BME280;41530;52.382;5.270;2023-05-09T11:22:17;101335.19;;;21.44;51.92
55656;BME280;41530;52.382;5.270;2023-05-09T11:24:46;101330.63;;;21.44;52.19
55656;BME280;41530;52.382;5.270;2023-05-09T11:27:18;101332.31;;;21.45;52.14
55656;BME280;41530;52.382;5.270;2023-05-09T11:29:54;101329.63;;;21.45;51.94
55656;BME280;41530;52.382;5.270;2023-05-09T11:32:26;101316.44;;;21.44;52.09
55656;BME280;41530;52.382;5.270;2023-05-09T11:35:20;101320.78;;;21.45;52.22
55656;BME280;41530;52.382;5.270;2023-05-09T11:37:50;101316.44;;;21.44;52.15
55656;BME280;41530;52.382;5.270;2023-05-09T11:40:20;101314.56;;;21.44;52.17
55656;BME280;41530;52.382;5.270;2023-05-09T11:42:52;101312.75;;;21.45;52.29
55656;BME280;41530;52.382;5.270;2023-05-09T11:45:25;101305.75;;;21.44;52.18
55656;BME280;41530;52.382;5.270;2023-05-09T11:47:53;101306.53;;;21.44;52.16
55656;BME280;41530;52.382;5.270;2023-05-09T11:50:20;101303.88;;;21.44;52.07
55656;BME280;41530;52.382;5.270;2023-05-09T11:52:47;101302.03;;;21.45;52.03
55656;BME280;41530;52.382;5.270;2023-05-09T11:55:19;101302.03;;;21.45;51.96
55656;BME280;41530;52.382;5.270;2023-05-09T11:57:52;101305.53;;;21.45;52.01
55656;BME280;41530;52.382;5.270;2023-05-09T12:00:21;101299.34;;;21.45;52.31
55656;BME280;41530;52.382;5.270;2023-05-09T12:02:49;101299.19;;;21.46;52.04
55656;BME280;41530;52.382;5.270;2023-05-09T12:05:18;101291.16;;;21.46;52.32
55656;BME280;41530;52.382;5.270;2023-05-09T12:07:45;101291.16;;;21.46;51.97
55656;BME280;41530;52.382;5.270;2023-05-09T12:10:18;101280.63;;;21.45;52.21
55656;BME280;41530;52.382;5.270;2023-05-09T12:12:48;101284.97;;;21.46;52.02
55656;BME280;41530;52.382;5.270;2023-05-09T12:15:16;101274.25;;;21.46;52.36
55656;BME280;41530;52.382;5.270;2023-05-09T12:17:45;101282.28;;;21.46;51.99
55656;BME280;41530;52.382;5.270;2023-05-09T12:20:14;101275.09;;;21.46;52.16
55656;BME280;41530;52.382;5.270;2023-05-09T12:22:42;101263.72;;;21.44;52.26
55656;BME280;41530;52.382;5.270;2023-05-09T12:25:09;101268.91;;;21.46;52.06
55656;BME280;41530;52.382;5.270;2023-05-09T12:27:40;101272.41;;;21.46;52.12
55656;BME280;41530;52.382;5.270;2023-05-09T12:30:07;101263.56;;;21.46;52.21
55656;BME280;41530;52.382;5.270;2023-05-09T12:32:36;101264.38;;;21.46;52.41
55656;BME280;41530;52.382;5.270;2023-05-09T12:35:07;101269.75;;;21.46;52.18
55656;BME280;41530;52.382;5.270;2023-05-09T12:37:35;101262.38;;;21.48;51.97
55656;BME280;41530;52.382;5.270;2023-05-09T12:40:05;101262.56;;;21.47;52.30
55656;BME280;41530;52.382;5.270;2023-05-09T12:42:34;101264.38;;;21.46;52.22
55656;BME280;41530;52.382;5.270;2023-05-09T12:45:02;101262.56;;;21.47;51.91
55656;BME280;41530;52.382;5.270;2023-05-09T12:47:30;101259.72;;;21.48;52.02
55656;BME280;41530;52.382;5.270;2023-05-09T12:49:58;101254.34;;;21.48;51.96
55656;BME280;41530;52.382;5.270;2023-05-09T12:52:31;101254.34;;;21.48;51.96
55656;BME280;41530;52.382;5.270;2023-05-09T12:55:04;101250.69;;;21.49;52.10
55656;BME280;41530;52.382;5.270;2023-05-09T12:57:32;101246.50;;;21.47;52.24
55656;BME280;41530;52.382;5.270;2023-05-09T13:00:00;101250.69;;;21.49;52.09
55656;BME280;41530;52.382;5.270;2023-05-09T13:02:27;101243.50;;;21.50;52.14
55656;BME280;41530;52.382;5.270;2023-05-09T13:05:11;101240.97;;;21.48;52.48
55656;BME280;41530;52.382;5.270;2023-05-09T13:07:43;101241.66;;;21.50;52.10
55656;BME280;41530;52.382;5.270;2023-05-09T13:10:13;101243.50;;;21.50;52.21
55656;BME280;41530;52.382;5.270;2023-05-09T13:12:41;101239.97;;;21.49;51.97
55656;BME280;41530;52.382;5.270;2023-05-09T13:15:10;101239.13;;;21.49;51.98
55656;BME280;41530;52.382;5.270;2023-05-09T13:17:37;101237.28;;;21.49;51.93
55656;BME280;41530;52.382;5.270;2023-05-09T13:20:04;101241.81;;;21.49;52.20
55656;BME280;41530;52.382;5.270;2023-05-09T13:22:31;101235.47;;;21.50;51.99
55656;BME280;41530;52.382;5.270;2023-05-09T13:24:58;101230.09;;;21.50;52.18
55656;BME280;41530;52.382;5.270;2023-05-09T13:27:25;101226.59;;;21.49;52.12